Time;durP1;ratioP1;P1;durP2;ratioP2;P2;SDS_P1;SDS_P2;PMS_P1;PMS_P2;Temp;Humidity;BMP_temperature;BMP_pressure;BME280_temperature;BME280_humidity;BME280_pressure;Samples;Min_cycle;Max_cycle;Signal;HPM_P1;HPM_P2
2020/12/29 00:00:50;;;;;;;1.43;1.33;;;;;20.00;96862.00;;;;2058472;28;20850;-49
2020/12/29 00:01:50;;;;;;;1.60;1.50;;;;;19.90;96863.00;;;;2072367;28;20235;-51
2020/12/29 00:02:51;;;;;;;1.40;1.30;;;;;19.90;96861.00;;;;2077828;28;20217;-51
2020/12/29 00:03:51;;;;;;;1.67;1.57;;;;;19.90;96862.00;;;;2064847;28;20221;-50
2020/12/29 00:04:51;;;;;;;1.57;1.40;;;;;19.90;96866.00;;;;2061438;28;20276;-51
2020/12/29 00:05:52;;;;;;;1.23;1.13;;;;;19.90;96863.00;;;;2061092;28;20218;-52
2020/12/29 00:06:56;;;;;;;1.50;1.40;;;;;19.90;96869.00;;;;2052763;28;20818;-49
2020/12/29 00:07:56;;;;;;;1.50;1.40;;;;;19.90;96868.00;;;;2062059;28;20275;-51
2020/12/29 00:08:57;;;;;;;1.57;1.40;;;;;19.90;96870.00;;;;2062185;28;20296;-51
2020/12/29 00:09:57;;;;;;;1.70;1.60;;;;;19.90;96864.00;;;;2062416;28;20249;-49
2020/12/29 00:10:58;;;;;;;1.43;1.33;;;;;19.90;96876.00;;;;2062254;28;20218;-50
2020/12/29 00:11:58;;;;;;;2.03;1.43;;;;;19.90;96871.00;;;;2062206;28;20229;-51
2020/12/29 00:12:59;;;;;;;1.50;1.27;;;;;19.90;96871.00;;;;2062418;28;20237;-51
2020/12/29 00:14:00;;;;;;;1.40;1.30;;;;;19.90;96870.00;;;;2062543;28;20218;-51
2020/12/29 00:15:00;;;;;;;1.67;1.50;;;;;19.90;96873.00;;;;2061905;28;20253;-51
2020/12/29 00:16:02;;;;;;;1.40;1.30;;;;;19.90;96875.00;;;;2062511;28;20303;-52
2020/12/29 00:17:02;;;;;;;1.70;1.60;;;;;19.90;96871.00;;;;2061609;28;20222;-52
2020/12/29 00:18:02;;;;;;;1.70;1.60;;;;;19.90;96874.00;;;;2062355;28;20707;-51
2020/12/29 00:19:04;;;;;;;2.10;1.43;;;;;19.90;96871.00;;;;2063029;28;20253;-51
2020/12/29 00:20:05;;;;;;;1.42;1.30;;;;;19.90;96873.00;;;;2062848;28;20625;-51
2020/12/29 00:21:05;;;;;;;1.30;1.20;;;;;19.90;96879.00;;;;2062605;28;20238;-52
2020/12/29 00:22:05;;;;;;;1.60;1.50;;;;;19.90;96873.00;;;;2062578;28;20229;-49
2020/12/29 00:23:06;;;;;;;2.17;1.50;;;;;19.90;96880.00;;;;2063109;28;20271;-50
2020/12/29 00:24:07;;;;;;;2.30;1.40;;;;;19.90;96876.00;;;;2062762;28;20329;-51
2020/12/29 00:25:07;;;;;;;1.50;1.40;;;;;19.90;96877.00;;;;2062039;28;20228;-51
2020/12/29 00:26:07;;;;;;;1.50;1.40;;;;;19.80;96881.00;;;;2062692;28;20217;-51
2020/12/29 00:27:08;;;;;;;1.33;1.23;;;;;19.90;96878.00;;;;2062122;28;20304;-50
2020/12/29 00:28:08;;;;;;;1.20;1.10;;;;;19.80;96872.00;;;;2062514;28;20778;-50
2020/12/29 00:29:08;;;;;;;1.87;1.30;;;;;19.80;96878.00;;;;2062836;28;20348;-51
2020/12/29 00:30:09;;;;;;;1.30;1.20;;;;;19.90;96873.00;;;;2062798;28;20220;-51
2020/12/29 00:31:09;;;;;;;1.37;1.27;;;;;19.80;96880.00;;;;2062540;28;20218;-51
2020/12/29 00:32:10;;;;;;;1.37;1.27;;;;;19.80;96873.00;;;;2062555;28;20765;-50
2020/12/29 00:33:10;;;;;;;1.57;1.47;;;;;19.80;96876.00;;;;2062838;28;20718;-50
2020/12/29 00:34:10;;;;;;;1.27;1.10;;;;;19.80;96877.00;;;;2062793;28;20739;-50
2020/12/29 00:35:11;;;;;;;1.40;1.30;;;;;19.80;96877.00;;;;2062072;28;20591;-48
2020/12/29 00:36:11;;;;;;;1.57;1.40;;;;;19.80;96881.00;;;;2062633;28;20296;-51
2020/12/29 00:37:11;;;;;;;1.43;1.33;;;;;19.90;96878.00;;;;2062248;28;20296;-50
2020/12/29 00:38:12;;;;;;;1.23;1.13;;;;;19.90;96872.00;;;;2061774;28;20313;-51
2020/12/29 00:39:12;;;;;;;1.27;1.17;;;;;19.80;96878.00;;;;2062065;28;20708;-49
2020/12/29 00:40:13;;;;;;;1.53;1.43;;;;;19.80;96875.00;;;;2062625;28;20213;-51
2020/12/29 00:41:13;;;;;;;1.50;1.40;;;;;19.80;96875.00;;;;2062208;28;20268;-51
2020/12/29 00:42:14;;;;;;;1.40;1.30;;;;;19.90;96875.00;;;;2062481;28;20218;-51
2020/12/29 00:43:14;;;;;;;1.60;1.50;;;;;19.80;96877.00;;;;2062927;28;20215;-55
2020/12/29 00:44:14;;;;;;;1.27;1.13;;;;;19.80;96878.00;;;;2061880;28;20387;-49
2020/12/29 00:45:15;;;;;;;1.47;1.37;;;;;19.80;96879.00;;;;2062253;28;20211;-51
2020/12/29 00:46:17;;;;;;;2.13;1.20;;;;;19.80;96885.00;;;;2064085;28;20268;-52
2020/12/29 00:47:18;;;;;;;1.52;1.42;;;;;19.80;96883.00;;;;2063962;28;20352;-51
2020/12/29 00:48:18;;;;;;;1.37;1.27;;;;;19.80;96880.00;;;;2064036;28;20226;-51
2020/12/29 00:49:19;;;;;;;1.50;1.40;;;;;19.80;96886.00;;;;2064056;28;20453;-49
2020/12/29 00:50:19;;;;;;;1.27;1.17;;;;;19.80;96888.00;;;;2064276;28;20212;-50
2020/12/29 00:51:20;;;;;;;1.30;1.20;;;;;19.80;96887.00;;;;2063899;28;20561;-51
2020/12/29 00:52:21;;;;;;;1.35;1.25;;;;;19.80;96884.00;;;;2063928;28;20600;-50
2020/12/29 00:53:21;;;;;;;2.00;1.80;;;;;19.80;96881.00;;;;2064271;28;20293;-52
2020/12/29 00:54:22;;;;;;;1.67;1.30;;;;;19.80;96886.00;;;;2064440;28;20272;-51
2020/12/29 00:55:22;;;;;;;2.73;1.63;;;;;19.80;96880.00;;;;2063738;28;20269;-50
2020/12/29 00:56:22;;;;;;;1.93;1.40;;;;;19.80;96883.00;;;;2064178;28;20221;-51
2020/12/29 00:57:23;;;;;;;1.60;1.23;;;;;19.80;96882.00;;;;2063767;28;20214;-49
2020/12/29 00:58:23;;;;;;;1.97;1.50;;;;;19.80;96881.00;;;;2064110;28;20591;-50
2020/12/29 00:59:23;;;;;;;1.57;1.40;;;;;19.80;96887.00;;;;2064331;28;20221;-50
2020/12/29 01:00:24;;;;;;;1.47;1.37;;;;;19.80;96888.00;;;;2064260;28;20234;-50
2020/12/29 01:01:24;;;;;;;1.50;1.40;;;;;19.80;96880.00;;;;2063514;28;20214;-51
2020/12/29 01:02:25;;;;;;;1.50;1.40;;;;;19.70;96882.00;;;;2064160;28;20564;-51
2020/12/29 01:03:25;;;;;;;1.63;1.50;;;;;19.70;96884.00;;;;2064149;28;20288;-50
2020/12/29 01:04:26;;;;;;;1.60;1.50;;;;;19.70;96889.00;;;;2063946;28;20730;-49
2020/12/29 01:05:26;;;;;;;2.10;1.63;;;;;19.70;96885.00;;;;2063443;28;20230;-50
2020/12/29 01:06:27;;;;;;;1.80;1.40;;;;;19.70;96889.00;;;;2064128;28;20737;-49
2020/12/29 01:07:27;;;;;;;1.45;1.33;;;;;19.70;96891.00;;;;2063743;28;20228;-49
2020/12/29 01:08:28;;;;;;;1.67;1.40;;;;;19.70;96887.00;;;;2064088;28;20573;-51
2020/12/29 01:09:28;;;;;;;2.00;1.50;;;;;19.70;96883.00;;;;2064143;28;20706;-51
2020/12/29 01:10:28;;;;;;;2.00;1.53;;;;;19.70;96890.00;;;;2064267;28;20263;-52
2020/12/29 01:11:29;;;;;;;1.40;1.30;;;;;19.70;96880.00;;;;2063886;28;20667;-50
2020/12/29 01:12:29;;;;;;;1.70;1.60;;;;;19.70;96889.00;;;;2064122;28;20622;-51
2020/12/29 01:13:29;;;;;;;1.53;1.43;;;;;19.70;96889.00;;;;2063911;28;20217;-49
2020/12/29 01:14:30;;;;;;;1.47;1.37;;;;;19.70;96884.00;;;;2063762;28;20218;-50
2020/12/29 01:15:30;;;;;;;1.80;1.70;;;;;19.70;96886.00;;;;2063865;28;20325;-51
2020/12/29 01:16:30;;;;;;;1.70;1.60;;;;;19.70;96889.00;;;;2064123;28;20237;-51
2020/12/29 01:17:31;;;;;;;1.30;1.20;;;;;19.70;96895.00;;;;2063668;28;20214;-51
2020/12/29 01:18:31;;;;;;;1.87;1.60;;;;;19.70;96895.00;;;;2064072;28;20292;-51
2020/12/29 01:19:31;;;;;;;1.57;1.47;;;;;19.70;96896.00;;;;2063951;28;20213;-52
2020/12/29 01:20:32;;;;;;;1.33;1.23;;;;;19.70;96897.00;;;;2063862;28;20214;-49
2020/12/29 01:21:32;;;;;;;1.40;1.30;;;;;19.70;96901.00;;;;2063874;28;20214;-51
2020/12/29 01:22:32;;;;;;;1.47;1.37;;;;;19.70;96899.00;;;;2063599;28;20214;-51
2020/12/29 01:23:33;;;;;;;1.50;1.40;;;;;19.70;96908.00;;;;2063197;28;20214;-52
2020/12/29 01:24:33;;;;;;;1.90;1.77;;;;;19.70;96898.00;;;;2063457;28;20230;-51
2020/12/29 01:25:33;;;;;;;2.03;1.83;;;;;19.70;96903.00;;;;2063799;28;20229;-52
2020/12/29 01:26:34;;;;;;;1.60;1.40;;;;;19.70;96901.00;;;;2063919;28;20686;-48
2020/12/29 01:27:35;;;;;;;1.60;1.50;;;;;19.70;96897.00;;;;2062954;28;20297;-50
2020/12/29 01:28:36;;;;;;;1.80;1.60;;;;;19.70;96899.00;;;;2063380;28;20646;-52
2020/12/29 01:29:37;;;;;;;1.50;1.40;;;;;19.70;96904.00;;;;2064007;28;20694;-49
2020/12/29 01:30:37;;;;;;;1.50;1.40;;;;;19.70;96901.00;;;;2063908;28;20386;-52
2020/12/29 01:31:38;;;;;;;2.27;1.80;;;;;19.60;96905.00;;;;2063886;28;20710;-51
2020/12/29 01:32:38;;;;;;;1.93;1.27;;;;;19.60;96899.00;;;;2063982;28;20223;-48
2020/12/29 01:33:38;;;;;;;1.40;1.30;;;;;19.60;96903.00;;;;2063985;28;20221;-50
2020/12/29 01:34:39;;;;;;;1.60;1.50;;;;;19.60;96900.00;;;;2063389;28;20229;-51
2020/12/29 01:35:39;;;;;;;1.90;1.60;;;;;19.60;96906.00;;;;2063937;28;20947;-51
2020/12/29 01:36:39;;;;;;;1.60;1.50;;;;;19.60;96904.00;;;;2063783;28;20705;-52
2020/12/29 01:37:43;;;;;;;1.50;1.40;;;;;19.60;96897.00;;;;2063679;28;20237;-51
2020/12/29 01:38:44;;;;;;;1.50;1.40;;;;;19.70;96903.00;;;;2063860;28;20610;-52
2020/12/29 01:39:44;;;;;;;1.90;1.57;;;;;19.70;96898.00;;;;2063779;28;20237;-50
2020/12/29 01:40:46;;;;;;;1.70;1.57;;;;;19.70;96907.00;;;;2063733;28;20306;-51
2020/12/29 01:41:47;;;;;;;1.75;1.65;;;;;19.60;96905.00;;;;2063779;28;20288;-49
2020/12/29 01:42:47;;;;;;;1.87;1.57;;;;;19.60;96915.00;;;;2063964;28;20226;-51
2020/12/29 01:43:48;;;;;;;1.30;1.20;;;;;19.60;96911.00;;;;2064062;28;20226;-51
2020/12/29 01:44:49;;;;;;;1.77;1.50;;;;;19.60;96913.00;;;;2063128;28;20235;-49
2020/12/29 01:45:49;;;;;;;1.40;1.17;;;;;19.60;96903.00;;;;2063846;28;20357;-51
2020/12/29 01:46:49;;;;;;;2.17;1.60;;;;;19.60;96914.00;;;;2063896;28;20636;-50
2020/12/29 01:47:50;;;;;;;1.87;1.77;;;;;19.60;96904.00;;;;2063556;28;20829;-51
2020/12/29 01:48:50;;;;;;;1.30;1.20;;;;;19.60;96909.00;;;;2063751;28;20309;-52
2020/12/29 01:49:51;;;;;;;1.77;1.53;;;;;19.60;96910.00;;;;2062595;28;20222;-52
2020/12/29 01:50:51;;;;;;;1.50;1.30;;;;;19.60;96917.00;;;;2062630;28;20227;-54
2020/12/29 01:51:51;;;;;;;1.50;1.40;;;;;19.60;96918.00;;;;2063503;28;20246;-53
2020/12/29 01:52:59;;;;;;;1.80;1.23;;;;;19.60;96917.00;;;;2063857;28;20221;-53
2020/12/29 01:53:59;;;;;;;1.70;1.60;;;;;19.60;96910.00;;;;2063874;28;20561;-51
2020/12/29 01:54:59;;;;;;;1.67;1.30;;;;;19.60;96918.00;;;;2072886;28;20267;-51
2020/12/29 01:56:01;;;;;;;1.50;1.40;;;;;19.60;96922.00;;;;2078855;28;20215;-52
2020/12/29 01:57:01;;;;;;;1.35;1.25;;;;;19.60;96921.00;;;;2065061;28;20226;-51
2020/12/29 01:58:01;;;;;;;1.40;1.23;;;;;19.60;96925.00;;;;2062647;28;20214;-51
2020/12/29 01:59:09;;;;;;;1.50;1.40;;;;;19.60;96926.00;;;;2063166;28;20210;-52
2020/12/29 02:00:09;;;;;;;1.65;1.40;;;;;19.60;96930.00;;;;2063300;28;20224;-48
2020/12/29 02:01:10;;;;;;;1.30;1.20;;;;;19.60;96924.00;;;;2063610;28;20221;-51
2020/12/29 02:02:10;;;;;;;2.37;1.60;;;;;19.60;96925.00;;;;2063679;28;21000;-51
2020/12/29 02:03:11;;;;;;;1.50;1.40;;;;;19.60;96932.00;;;;2063802;28;20216;-51
2020/12/29 02:04:14;;;;;;;1.50;1.40;;;;;19.60;96933.00;;;;2076293;28;20221;-49
2020/12/29 02:05:14;;;;;;;1.45;1.35;;;;;19.60;96938.00;;;;2078490;28;20213;-51
2020/12/29 02:06:15;;;;;;;1.60;1.50;;;;;19.60;96939.00;;;;2064545;28;20645;-51
2020/12/29 02:07:16;;;;;;;1.60;1.50;;;;;19.60;96933.00;;;;2063589;28;20241;-52
2020/12/29 02:08:17;;;;;;;1.50;1.30;;;;;19.60;96937.00;;;;2063609;28;20737;-51
2020/12/29 02:09:17;;;;;;;1.20;0.97;;;;;19.60;96931.00;;;;2054866;28;20235;-48
2020/12/29 02:10:17;;;;;;;1.50;1.40;;;;;19.60;96937.00;;;;2055195;28;20227;-50
2020/12/29 02:11:18;;;;;;;1.50;1.30;;;;;19.60;96937.00;;;;2063505;28;20264;-49
2020/12/29 02:12:25;;;;;;;1.57;1.30;;;;;19.60;96933.00;;;;2063907;28;20223;-49
2020/12/29 02:13:25;;;;;;;1.40;1.30;;;;;19.60;96932.00;;;;2063348;28;20222;-52
2020/12/29 02:14:25;;;;;;;1.30;1.20;;;;;19.60;96931.00;;;;2063766;28;20233;-51
2020/12/29 02:15:26;;;;;;;2.93;1.73;;;;;19.60;96934.00;;;;2062919;28;20305;-50
2020/12/29 02:16:26;;;;;;;1.83;1.50;;;;;19.60;96936.00;;;;2063471;28;20267;-51
2020/12/29 02:17:26;;;;;;;1.20;1.10;;;;;19.60;96935.00;;;;2063567;28;20222;-51
2020/12/29 02:18:27;;;;;;;1.20;1.10;;;;;19.60;96942.00;;;;2063558;28;20264;-47
2020/12/29 02:19:27;;;;;;;2.03;1.47;;;;;19.60;96938.00;;;;2063522;28;20301;-50
2020/12/29 02:20:27;;;;;;;1.97;1.70;;;;;19.60;96936.00;;;;2063665;28;20216;-51
2020/12/29 02:21:31;;;;;;;1.30;1.20;;;;;19.60;96942.00;;;;2063304;28;20277;-49
2020/12/29 02:22:32;;;;;;;1.65;1.30;;;;;19.50;96946.00;;;;2063661;28;20217;-52
2020/12/29 02:23:32;;;;;;;1.30;1.10;;;;;19.60;96942.00;;;;2063373;28;20238;-51
2020/12/29 02:24:32;;;;;;;2.33;1.23;;;;;19.60;96944.00;;;;2062648;28;20711;-51
2020/12/29 02:25:33;;;;;;;1.40;1.30;;;;;19.50;96942.00;;;;2063624;28;20234;-51
2020/12/29 02:26:34;;;;;;;1.40;1.30;;;;;19.50;96944.00;;;;2063440;28;20216;-52
2020/12/29 02:27:43;;;;;;;1.20;1.10;;;;;19.50;96942.00;;;;2057609;28;20211;-49
2020/12/29 02:28:44;;;;;;;1.30;1.20;;;;;19.50;96941.00;;;;2062386;28;20242;-50
2020/12/29 02:29:44;;;;;;;1.27;1.10;;;;;19.50;96946.00;;;;2063627;28;20338;-49
2020/12/29 02:30:45;;;;;;;1.30;1.20;;;;;19.50;96945.00;;;;2063650;28;20221;-51
2020/12/29 02:31:45;;;;;;;1.20;1.10;;;;;19.50;96947.00;;;;2063390;28;20289;-51
2020/12/29 02:32:46;;;;;;;1.37;1.27;;;;;19.50;96944.00;;;;2063638;28;20221;-52
2020/12/29 02:33:46;;;;;;;1.20;1.10;;;;;19.50;96949.00;;;;2063603;28;20218;-49
2020/12/29 02:34:47;;;;;;;1.40;1.30;;;;;19.50;96947.00;;;;2063003;28;20226;-50
2020/12/29 02:35:47;;;;;;;1.33;1.23;;;;;19.50;96947.00;;;;2063317;28;20304;-49
2020/12/29 02:36:47;;;;;;;1.20;1.10;;;;;19.50;96947.00;;;;2063333;28;20218;-51
2020/12/29 02:37:48;;;;;;;1.57;1.47;;;;;19.50;96947.00;;;;2063109;28;20970;-51
2020/12/29 02:38:48;;;;;;;1.37;1.10;;;;;19.50;96941.00;;;;2062748;28;20781;-49
2020/12/29 02:39:49;;;;;;;1.20;1.10;;;;;19.50;96946.00;;;;2063669;28;20248;-50
2020/12/29 02:40:50;;;;;;;1.20;1.10;;;;;19.50;96946.00;;;;2059362;28;20224;-52
2020/12/29 02:41:50;;;;;;;1.30;1.20;;;;;19.50;96947.00;;;;2060812;28;20586;-50
2020/12/29 02:42:51;;;;;;;1.87;1.50;;;;;19.50;96944.00;;;;2063810;28;20670;-51
2020/12/29 02:43:51;;;;;;;1.17;0.90;;;;;19.50;96946.00;;;;2063494;28;20686;-50
2020/12/29 02:44:51;;;;;;;1.17;1.00;;;;;19.50;96942.00;;;;2062954;28;20653;-51
2020/12/29 02:45:52;;;;;;;1.20;1.10;;;;;19.50;96941.00;;;;2063414;28;20213;-52
2020/12/29 02:46:52;;;;;;;1.40;1.30;;;;;19.50;96956.00;;;;2063405;28;20218;-50
2020/12/29 02:47:53;;;;;;;1.30;1.20;;;;;19.50;96942.00;;;;2063208;28;20219;-48
2020/12/29 02:48:53;;;;;;;1.90;1.40;;;;;19.50;96946.00;;;;2063523;28;20284;-51
2020/12/29 02:49:53;;;;;;;1.30;1.00;;;;;19.50;96938.00;;;;2062310;28;20215;-51
2020/12/29 02:50:54;;;;;;;1.27;1.17;;;;;19.50;96940.00;;;;2062690;28;20306;-50
2020/12/29 02:51:56;;;;;;;1.47;1.30;;;;;19.50;96950.00;;;;2061930;28;20225;-51
2020/12/29 02:52:57;;;;;;;1.33;1.20;;;;;19.50;96944.00;;;;2062444;28;20233;-52
2020/12/29 02:53:58;;;;;;;1.75;1.17;;;;;19.50;96938.00;;;;2062889;28;20271;-51
2020/12/29 02:54:58;;;;;;;1.83;1.37;;;;;19.50;96946.00;;;;2061437;28;20933;-56
2020/12/29 02:55:58;;;;;;;1.13;0.90;;;;;19.50;96938.00;;;;2062998;28;20225;-53
2020/12/29 02:56:59;;;;;;;1.30;1.10;;;;;19.50;96938.00;;;;2062402;28;20233;-50
2020/12/29 02:57:59;;;;;;;1.47;1.27;;;;;19.50;96939.00;;;;2062880;28;20694;-51
2020/12/29 02:58:59;;;;;;;1.73;1.13;;;;;19.50;96944.00;;;;2062777;28;20675;-51
2020/12/29 03:00:00;;;;;;;1.37;1.27;;;;;19.50;96944.00;;;;2062431;28;20676;-50
2020/12/29 03:01:00;;;;;;;1.10;1.00;;;;;19.50;96950.00;;;;2062840;28;20858;-51
2020/12/29 03:02:00;;;;;;;1.40;1.30;;;;;19.50;96942.00;;;;2062533;28;20245;-51
2020/12/29 03:03:01;;;;;;;1.13;1.03;;;;;19.50;96942.00;;;;2062855;28;20264;-52
2020/12/29 03:04:01;;;;;;;1.30;1.20;;;;;19.50;96941.00;;;;2062685;28;20217;-49
2020/12/29 03:05:02;;;;;;;1.80;1.17;;;;;19.50;96943.00;;;;2062145;28;20300;-50
2020/12/29 03:06:02;;;;;;;1.37;1.27;;;;;19.50;96946.00;;;;2062412;28;20213;-50
2020/12/29 03:07:03;;;;;;;1.17;0.93;;;;;19.50;96950.00;;;;2062450;28;20212;-51
2020/12/29 03:08:03;;;;;;;1.30;1.20;;;;;19.20;96951.00;;;;2062216;28;20584;-51
2020/12/29 03:09:03;;;;;;;1.30;1.20;;;;;19.50;96955.00;;;;2062395;28;20256;-49
2020/12/29 03:10:08;;;;;;;1.30;1.03;;;;;19.50;96955.00;;;;2062747;28;20344;-51
2020/12/29 03:11:08;;;;;;;1.20;1.10;;;;;19.40;96954.00;;;;2062787;28;20216;-51
2020/12/29 03:12:08;;;;;;;1.33;1.23;;;;;19.40;96963.00;;;;2062510;28;20615;-52
2020/12/29 03:13:09;;;;;;;1.53;1.43;;;;;19.50;96966.00;;;;2062751;28;20344;-52
2020/12/29 03:14:09;;;;;;;1.30;1.20;;;;;19.50;96967.00;;;;2062678;28;20214;-52
2020/12/29 03:15:09;;;;;;;1.20;1.10;;;;;19.50;96962.00;;;;2062785;28;20209;-48
2020/12/29 03:16:10;;;;;;;1.30;1.20;;;;;19.50;96968.00;;;;2063178;28;20210;-50
2020/12/29 03:17:10;;;;;;;1.37;1.10;;;;;19.50;96967.00;;;;2055835;28;20296;-49
2020/12/29 03:18:10;;;;;;;1.20;1.00;;;;;19.40;96966.00;;;;2070338;28;20250;-51
2020/12/29 03:19:14;;;;;;;1.20;1.10;;;;;19.40;96969.00;;;;2071700;28;20229;-52
2020/12/29 03:20:14;;;;;;;1.17;1.08;;;;;19.40;96972.00;;;;2063343;28;20249;-51
2020/12/29 03:21:14;;;;;;;1.00;0.90;;;;;19.40;96974.00;;;;2063020;28;20258;-51
2020/12/29 03:22:15;;;;;;;1.27;1.17;;;;;19.50;96971.00;;;;2062894;28;20208;-51
2020/12/29 03:23:15;;;;;;;1.00;0.90;;;;;19.40;96969.00;;;;2062958;28;20202;-52
2020/12/29 03:24:16;;;;;;;1.30;0.93;;;;;19.40;96973.00;;;;2062779;28;20692;-52
2020/12/29 03:25:16;;;;;;;1.67;1.33;;;;;19.40;96975.00;;;;2062590;28;20817;-49
2020/12/29 03:26:17;;;;;;;1.47;1.10;;;;;19.40;96971.00;;;;2063194;28;20248;-50
2020/12/29 03:27:17;;;;;;;1.27;1.17;;;;;19.40;96976.00;;;;2063054;28;20295;-50
2020/12/29 03:28:18;;;;;;;1.10;1.00;;;;;19.40;96973.00;;;;2063066;28;20213;-50
2020/12/29 03:29:18;;;;;;;1.47;1.37;;;;;19.40;96984.00;;;;2063209;28;20218;-49
2020/12/29 03:30:18;;;;;;;1.30;1.10;;;;;19.40;96981.00;;;;2063156;28;20218;-50
2020/12/29 03:31:19;;;;;;;1.20;1.10;;;;;19.40;96984.00;;;;2062711;28;20214;-50
2020/12/29 03:32:19;;;;;;;0.93;0.90;;;;;19.40;96987.00;;;;2063056;28;20214;-51
2020/12/29 03:33:19;;;;;;;1.37;1.27;;;;;19.40;96984.00;;;;2063107;28;20707;-49
2020/12/29 03:34:27;;;;;;;1.03;0.90;;;;;19.40;96989.00;;;;2063023;28;20557;-51
2020/12/29 03:35:27;;;;;;;1.10;1.00;;;;;19.40;96998.00;;;;2062793;28;20218;-50
2020/12/29 03:36:28;;;;;;;1.03;0.93;;;;;19.40;96999.00;;;;2063005;28;20245;-51
2020/12/29 03:37:28;;;;;;;1.40;1.30;;;;;19.40;97009.00;;;;2062530;28;20265;-50
2020/12/29 03:38:28;;;;;;;1.10;0.93;;;;;19.40;97005.00;;;;2062986;28;20213;-49
2020/12/29 03:39:29;;;;;;;1.23;0.97;;;;;19.40;97006.00;;;;2062992;28;20206;-51
2020/12/29 03:40:29;;;;;;;1.30;1.00;;;;;19.40;97003.00;;;;2063149;28;20695;-51
2020/12/29 03:41:29;;;;;;;1.73;1.00;;;;;19.40;97009.00;;;;2063076;28;20206;-51
2020/12/29 03:42:30;;;;;;;1.20;1.10;;;;;19.40;97009.00;;;;2063187;28;20212;-51
2020/12/29 03:43:30;;;;;;;1.23;1.13;;;;;19.40;96942.00;;;;2063122;28;20307;-52
2020/12/29 03:44:31;;;;;;;1.33;0.90;;;;;19.40;97003.00;;;;2062600;28;20760;-50
2020/12/29 03:45:32;;;;;;;0.93;0.82;;;;;19.40;97004.00;;;;2062903;28;20270;-51
2020/12/29 03:46:32;;;;;;;1.20;1.10;;;;;19.40;97006.00;;;;2063102;28;20560;-52
2020/12/29 03:47:32;;;;;;;1.20;1.10;;;;;19.40;97006.00;;;;2062668;28;20571;-52
2020/12/29 03:48:33;;;;;;;1.20;1.10;;;;;19.40;97003.00;;;;2067261;28;20297;-49
2020/12/29 03:49:33;;;;;;;1.00;0.87;;;;;19.40;97010.00;;;;2062707;28;20229;-56
2020/12/29 03:50:33;;;;;;;0.70;0.70;;;;;19.40;97016.00;;;;2062918;28;20222;-53
2020/12/29 03:51:34;;;;;;;1.17;1.07;;;;;19.40;97014.00;;;;2062778;28;20237;-52
2020/12/29 03:52:34;;;;;;;1.20;1.10;;;;;19.40;97018.00;;;;2062776;28;20211;-52
2020/12/29 03:53:34;;;;;;;0.90;0.90;;;;;19.40;97014.00;;;;2063006;28;20217;-52
2020/12/29 03:54:35;;;;;;;1.20;1.10;;;;;19.40;97014.00;;;;2062175;28;20217;-51
2020/12/29 03:55:35;;;;;;;1.10;1.00;;;;;19.40;97018.00;;;;2063086;28;20217;-50
2020/12/29 03:56:36;;;;;;;1.10;1.00;;;;;19.30;97015.00;;;;2062655;28;20297;-50
2020/12/29 03:57:36;;;;;;;1.40;1.30;;;;;19.40;97017.00;;;;2062609;28;20305;-52
2020/12/29 03:58:36;;;;;;;1.47;1.30;;;;;19.30;97028.00;;;;2062866;28;20313;-48
2020/12/29 03:59:37;;;;;;;1.00;0.90;;;;;19.30;97022.00;;;;2062935;28;20229;-49
2020/12/29 04:00:37;;;;;;;1.10;1.00;;;;;19.30;97018.00;;;;2062908;28;20221;-50
2020/12/29 04:01:37;;;;;;;1.57;1.00;;;;;19.30;97017.00;;;;2062811;28;20243;-50
2020/12/29 04:02:38;;;;;;;1.07;1.00;;;;;19.30;97015.00;;;;2062810;28;20305;-49
2020/12/29 04:03:41;;;;;;;1.20;1.07;;;;;19.30;97015.00;;;;2062988;28;20260;-52
2020/12/29 04:04:42;;;;;;;1.20;1.10;;;;;19.30;97020.00;;;;2062080;28;20238;-50
2020/12/29 04:05:42;;;;;;;1.13;1.03;;;;;19.30;97013.00;;;;2062908;28;20217;-51
2020/12/29 04:06:42;;;;;;;1.20;1.10;;;;;19.30;97039.00;;;;2062680;28;20221;-51
2020/12/29 04:07:43;;;;;;;1.23;1.13;;;;;19.30;97021.00;;;;2062399;28;20797;-51
2020/12/29 04:08:43;;;;;;;0.80;0.80;;;;;19.30;97021.00;;;;2061956;28;20794;-49
2020/12/29 04:09:44;;;;;;;1.77;1.27;;;;;19.40;97021.00;;;;2062238;28;20878;-52
2020/12/29 04:10:44;;;;;;;1.10;1.00;;;;;19.40;97021.00;;;;2062812;28;20832;-50
2020/12/29 04:11:44;;;;;;;1.50;1.30;;;;;19.40;97030.00;;;;2062919;28;20671;-51
2020/12/29 04:12:45;;;;;;;1.10;0.80;;;;;19.40;97027.00;;;;2062722;28;20838;-52
2020/12/29 04:13:45;;;;;;;0.87;0.87;;;;;19.40;97039.00;;;;2062704;28;20582;-51
2020/12/29 04:14:46;;;;;;;1.10;1.00;;;;;19.40;97031.00;;;;2062276;28;20216;-48
2020/12/29 04:15:46;;;;;;;1.10;1.00;;;;;19.30;97026.00;;;;2062744;28;20241;-50
2020/12/29 04:16:46;;;;;;;1.27;1.17;;;;;19.30;97027.00;;;;2062616;28;20264;-51
2020/12/29 04:17:47;;;;;;;1.70;1.37;;;;;19.30;97034.00;;;;2062755;28;20218;-51
2020/12/29 04:18:47;;;;;;;1.40;1.30;;;;;19.40;97031.00;;;;2062927;28;20310;-51
2020/12/29 04:19:47;;;;;;;1.30;1.20;;;;;19.40;97034.00;;;;2062566;28;20233;-50
2020/12/29 04:20:48;;;;;;;1.13;1.00;;;;;19.30;97030.00;;;;2062793;28;20234;-49
2020/12/29 04:21:48;;;;;;;1.40;1.03;;;;;19.30;97030.00;;;;2062363;28;20213;-50
2020/12/29 04:22:48;;;;;;;1.20;1.10;;;;;19.30;97039.00;;;;2062548;28;20214;-51
2020/12/29 04:23:49;;;;;;;1.00;0.90;;;;;19.30;97032.00;;;;2062693;28;20313;-51
2020/12/29 04:24:49;;;;;;;1.20;1.10;;;;;19.30;97038.00;;;;2062226;28;20280;-52
2020/12/29 04:25:50;;;;;;;1.10;1.00;;;;;19.30;97036.00;;;;2062866;28;20212;-52
2020/12/29 04:26:50;;;;;;;0.93;0.93;;;;;19.30;97045.00;;;;2062630;28;20213;-49
2020/12/29 04:27:50;;;;;;;1.20;1.10;;;;;19.30;97048.00;;;;2062681;28;20223;-51
2020/12/29 04:28:51;;;;;;;1.10;1.00;;;;;19.30;97045.00;;;;2062583;28;20300;-51
2020/12/29 04:29:51;;;;;;;1.30;1.20;;;;;19.30;97042.00;;;;2062771;28;20219;-51
2020/12/29 04:30:51;;;;;;;1.30;1.20;;;;;19.30;97051.00;;;;2062695;28;20259;-51
2020/12/29 04:31:52;;;;;;;1.13;1.03;;;;;19.30;97056.00;;;;2062757;28;20276;-51
2020/12/29 04:32:52;;;;;;;1.23;1.07;;;;;19.30;97045.00;;;;2062826;28;20201;-52
2020/12/29 04:33:52;;;;;;;1.43;1.00;;;;;19.30;97054.00;;;;2062758;28;20205;-49
2020/12/29 04:34:53;;;;;;;1.73;1.47;;;;;19.30;97063.00;;;;2062258;28;20222;-50
2020/12/29 04:35:53;;;;;;;1.60;1.20;;;;;19.30;97056.00;;;;2062744;28;20217;-52
2020/12/29 04:36:54;;;;;;;1.30;1.20;;;;;19.30;97057.00;;;;2061602;28;20210;-51
2020/12/29 04:37:54;;;;;;;1.03;0.90;;;;;19.30;97058.00;;;;2062020;28;20219;-52
2020/12/29 04:38:54;;;;;;;1.20;1.00;;;;;19.30;97055.00;;;;2061610;28;20214;-49
2020/12/29 04:39:55;;;;;;;1.13;1.03;;;;;19.30;97056.00;;;;2061167;28;20735;-50
2020/12/29 04:40:55;;;;;;;1.90;1.30;;;;;19.30;97062.00;;;;2062638;28;20578;-50
2020/12/29 04:42:04;;;;;;;1.27;1.17;;;;;19.30;97060.00;;;;2066567;28;20365;-51
2020/12/29 04:43:05;;;;;;;1.20;1.10;;;;;19.30;97056.00;;;;2063239;28;20688;-49
2020/12/29 04:44:06;;;;;;;1.23;1.13;;;;;19.30;97062.00;;;;2062584;28;20304;-51
2020/12/29 04:45:06;;;;;;;1.17;1.08;;;;;19.30;97060.00;;;;2062348;28;20225;-50
2020/12/29 04:46:07;;;;;;;1.43;1.20;;;;;19.30;97058.00;;;;2062723;28;20218;-49
2020/12/29 04:47:08;;;;;;;1.30;1.20;;;;;19.30;97055.00;;;;2062550;28;20213;-50
2020/12/29 04:48:08;;;;;;;1.50;0.97;;;;;19.30;97065.00;;;;2062514;28;20241;-51
2020/12/29 04:49:08;;;;;;;1.07;0.97;;;;;19.30;97059.00;;;;2061759;28;20456;-48
2020/12/29 04:50:09;;;;;;;1.23;1.13;;;;;19.30;97065.00;;;;2062138;28;20218;-51
2020/12/29 04:51:09;;;;;;;0.97;0.97;;;;;19.30;97065.00;;;;2061909;28;20309;-50
2020/12/29 04:52:10;;;;;;;1.43;1.23;;;;;19.30;97064.00;;;;2061731;28;20222;-56
2020/12/29 04:53:10;;;;;;;1.13;0.97;;;;;19.30;97063.00;;;;2062693;28;20210;-53
2020/12/29 04:54:10;;;;;;;1.20;1.00;;;;;19.30;97072.00;;;;2053918;28;20234;-53
2020/12/29 04:55:11;;;;;;;1.30;1.20;;;;;19.30;97065.00;;;;2053581;28;20217;-53
2020/12/29 04:56:11;;;;;;;1.30;1.20;;;;;19.30;97073.00;;;;2061889;28;20248;-51
2020/12/29 04:57:11;;;;;;;1.10;1.00;;;;;19.30;97069.00;;;;2062399;28;20307;-51
2020/12/29 04:58:12;;;;;;;1.30;0.93;;;;;19.30;97069.00;;;;2062675;28;20213;-50
2020/12/29 04:59:12;;;;;;;1.37;1.27;;;;;19.30;97077.00;;;;2053522;28;20218;-51
2020/12/29 05:00:12;;;;;;;1.30;1.20;;;;;19.30;97074.00;;;;2052742;28;20222;-52
2020/12/29 05:01:13;;;;;;;1.10;1.00;;;;;19.30;97075.00;;;;2062340;28;20221;-51
2020/12/29 05:02:13;;;;;;;1.10;1.00;;;;;19.30;97082.00;;;;2071163;28;20301;-50
2020/12/29 05:03:14;;;;;;;1.20;1.10;;;;;19.30;97087.00;;;;2069846;28;20214;-48
2020/12/29 05:04:14;;;;;;;1.20;1.10;;;;;19.30;97086.00;;;;2069993;28;20594;-51